createdAt,value
2022-09-27T00:00:09.510Z,73.65
2022-09-27T00:03:16.073Z,75.52
2022-09-27T00:06:25.281Z,77.80
2022-09-27T00:09:30.358Z,77.42
2022-09-27T00:12:33.591Z,78.31
2022-09-27T00:15:36.801Z,79.45
2022-09-27T00:18:41.763Z,80.63
2022-09-27T00:21:47.835Z,79.72
2022-09-27T00:24:53.110Z,80.14
2022-09-27T00:27:56.379Z,80.22
2022-09-27T00:31:02.329Z,83.04
2022-09-27T00:34:07.272Z,80.88
2022-09-27T00:37:11.534Z,80.96
2022-09-27T00:40:19.658Z,80.86
2022-09-27T00:43:24.919Z,81.91
2022-09-27T00:46:31.281Z,80.11
2022-09-27T00:49:41.916Z,79.71
2022-09-27T00:52:55.390Z,78.63
2022-09-27T00:56:04.671Z,80.56
2022-09-27T00:59:13.131Z,80.80
2022-09-27T01:02:16.860Z,80.86
2022-09-27T01:05:23.236Z,79.96
2022-09-27T01:08:26.573Z,77.91
2022-09-27T01:11:43.801Z,77.51
2022-09-27T01:15:03.171Z,79.11
2022-09-27T01:18:19.351Z,76.63
2022-09-27T01:21:47.316Z,74.79
2022-09-27T01:24:59.486Z,76.21
2022-09-27T01:28:34.656Z,75.37
2022-09-27T01:31:44.255Z,75.94
2022-09-27T01:34:57.998Z,75.42
2022-09-27T01:38:16.585Z,73.81
2022-09-27T01:41:31.227Z,72.78
2022-09-27T01:45:02.467Z,72.84
2022-09-27T01:48:19.063Z,72.74
2022-09-27T01:51:34.053Z,72.13
2022-09-27T01:54:40.918Z,72.27
2022-09-27T01:58:11.859Z,71.64
2022-09-27T02:01:18.188Z,72.84
2022-09-27T02:04:28.077Z,72.01
2022-09-27T02:07:49.606Z,73.27
2022-09-27T02:10:57.480Z,73.59
2022-09-27T02:14:08.101Z,73.55
2022-09-27T02:17:25.382Z,73.95
2022-09-27T02:20:36.994Z,72.50
2022-09-27T02:23:45.761Z,73.57
2022-09-27T02:26:58.114Z,73.33
2022-09-27T02:30:06.193Z,73.56
2022-09-27T02:33:10.846Z,72.36
2022-09-27T02:36:17.630Z,72.26
2022-09-27T02:39:22.239Z,72.86
2022-09-27T02:42:36.228Z,73.49
2022-09-27T02:45:55.195Z,74.22
2022-09-27T02:49:12.061Z,75.75
2022-09-27T02:52:28.858Z,75.67
2022-09-27T02:55:44.344Z,74.83
2022-09-27T02:59:15.283Z,74.82
2022-09-27T03:02:37.325Z,74.71
2022-09-27T03:06:05.001Z,76.10
2022-09-27T03:09:15.776Z,76.39
2022-09-27T03:12:26.065Z,76.37
2022-09-27T03:15:29.442Z,77.13
2022-09-27T03:18:38.462Z,76.05
2022-09-27T03:22:04.773Z,75.78
2022-09-27T03:25:10.429Z,76.18
2022-09-27T03:28:14.187Z,75.77
2022-09-27T03:31:18.977Z,76.22
2022-09-27T03:34:34.602Z,77.72
2022-09-27T03:37:37.994Z,77.23
2022-09-27T03:40:42.771Z,78.44
2022-09-27T03:43:47.008Z,78.99
2022-09-27T03:46:52.364Z,77.74
2022-09-27T03:49:56.066Z,77.74
2022-09-27T03:52:59.325Z,78.53
2022-09-27T03:56:05.417Z,78.61
2022-09-27T03:59:08.708Z,76.83
2022-09-27T04:02:32.013Z,75.48
2022-09-27T04:05:55.680Z,75.75
2022-09-27T04:09:08.418Z,75.50
2022-09-27T04:12:33.294Z,75.09
2022-09-27T04:15:37.797Z,74.23
2022-09-27T04:19:07.338Z,74.73
2022-09-27T04:22:16.762Z,73.99
2022-09-27T04:25:20.604Z,74.76
2022-09-27T04:28:28.079Z,74.17
2022-09-27T04:31:31.461Z,75.07
2022-09-27T04:35:06.743Z,75.75
2022-09-27T04:38:10.050Z,76.17
2022-09-27T04:41:13.742Z,73.66
2022-09-27T04:44:18.846Z,73.28
2022-09-27T04:47:26.092Z,73.53
2022-09-27T04:50:32.179Z,73.00
2022-09-27T04:53:40.402Z,71.85
2022-09-27T04:56:43.825Z,70.88
2022-09-27T04:59:51.756Z,70.85
2022-09-27T05:02:55.252Z,70.28
2022-09-27T05:06:14.030Z,70.70
2022-09-27T05:09:18.380Z,70.74
2022-09-27T05:12:26.927Z,71.26
2022-09-27T05:15:36.322Z,71.63
2022-09-27T05:19:11.795Z,69.52
2022-09-27T05:22:41.558Z,69.10
2022-09-27T05:25:45.471Z,68.60
2022-09-27T05:28:48.858Z,68.68
2022-09-27T05:31:54.160Z,67.76
2022-09-27T05:34:57.724Z,68.66
2022-09-27T05:38:01.863Z,68.06
2022-09-27T05:41:08.101Z,67.21
2022-09-27T05:44:13.339Z,67.48
2022-09-27T05:47:24.449Z,67.30
2022-09-27T05:50:28.816Z,67.51
2022-09-27T05:53:32.906Z,68.61
2022-09-27T05:56:39.183Z,66.74
2022-09-27T06:00:00.661Z,66.12
2022-09-27T06:03:22.530Z,66.39
2022-09-27T06:06:51.931Z,66.51
2022-09-27T06:09:55.392Z,66.34
2022-09-27T06:13:01.325Z,65.50
2022-09-27T06:16:13.806Z,66.92
2022-09-27T06:19:22.760Z,65.76
2022-09-27T06:22:26.587Z,65.42
2022-09-27T06:25:35.597Z,64.45
2022-09-27T06:28:56.140Z,63.84
2022-09-27T06:31:59.929Z,64.50
2022-09-27T06:35:11.547Z,64.28
2022-09-27T06:38:16.891Z,63.65
2022-09-27T06:41:27.594Z,63.96
2022-09-27T06:44:50.467Z,65.50
2022-09-27T06:48:19.961Z,65.77
2022-09-27T06:51:44.832Z,65.22
2022-09-27T06:54:48.076Z,65.35
2022-09-27T06:58:12.289Z,66.21
2022-09-27T07:01:20.644Z,65.20
2022-09-27T07:04:43.068Z,63.83
2022-09-27T07:08:05.966Z,63.63
2022-09-27T07:11:10.077Z,61.63
2022-09-27T07:14:13.351Z,62.34
2022-09-27T07:17:16.707Z,61.51
2022-09-27T07:20:22.284Z,60.18
2022-09-27T07:23:27.260Z,59.93
2022-09-27T07:26:31.307Z,60.21
2022-09-27T07:29:35.082Z,61.22
2022-09-27T07:32:38.890Z,61.27
2022-09-27T07:35:45.089Z,60.20
2022-09-27T07:38:49.760Z,57.71
2022-09-27T07:41:55.392Z,58.23
2022-09-27T07:44:59.103Z,57.27
2022-09-27T07:48:20.995Z,56.61
2022-09-27T07:51:50.366Z,56.19
2022-09-27T07:55:14.459Z,55.69
2022-09-27T07:58:33.570Z,57.13
2022-09-27T08:01:46.535Z,55.85
2022-09-27T08:04:49.943Z,55.92
2022-09-27T08:07:57.565Z,55.06
2022-09-27T08:11:03.506Z,54.53
2022-09-27T08:14:06.957Z,55.85
2022-09-27T08:17:11.875Z,56.80
2022-09-27T08:20:38.217Z,56.33
2022-09-27T08:24:01.381Z,57.32
2022-09-27T08:27:12.199Z,55.23
2022-09-27T08:30:32.476Z,55.83
2022-09-27T08:33:41.419Z,56.67
2022-09-27T08:36:46.166Z,57.59
2022-09-27T08:39:49.760Z,57.64
2022-09-27T08:43:05.249Z,58.42
2022-09-27T08:46:23.912Z,57.48
2022-09-27T08:49:34.869Z,58.39
2022-09-27T08:52:43.816Z,56.18
2022-09-27T08:55:52.338Z,55.65
2022-09-27T08:59:13.676Z,55.59
2022-09-27T09:02:20.873Z,55.72
2022-09-27T09:05:31.950Z,55.74
2022-09-27T09:08:50.800Z,56.41
2022-09-27T09:12:25.236Z,55.78
2022-09-27T09:15:54.477Z,54.27
2022-09-27T09:19:16.449Z,53.30
2022-09-27T09:22:54.869Z,52.54
2022-09-27T09:26:08.086Z,51.57
2022-09-27T09:29:25.936Z,52.20
2022-09-27T09:32:45.676Z,51.77
2022-09-27T09:35:55.005Z,51.82
2022-09-27T09:39:04.027Z,52.10
2022-09-27T09:42:14.335Z,51.52
2022-09-27T09:45:22.667Z,51.22
2022-09-27T09:48:33.964Z,50.34
2022-09-27T09:51:47.515Z,48.33
2022-09-27T09:54:56.286Z,48.55
2022-09-27T09:58:07.033Z,47.60
2022-09-27T10:01:23.144Z,47.46
2022-09-27T10:04:29.406Z,47.41
2022-09-27T10:07:40.145Z,48.33
2022-09-27T10:10:46.535Z,48.75
2022-09-27T10:14:12.884Z,48.79
2022-09-27T10:17:21.482Z,48.95
2022-09-27T10:20:36.652Z,49.19
2022-09-27T10:24:16.804Z,49.30
2022-09-27T10:27:42.054Z,49.68
2022-09-27T10:30:57.366Z,50.14
2022-09-27T10:34:05.650Z,50.52
2022-09-27T10:37:24.117Z,50.91
2022-09-27T10:40:35.444Z,50.65
2022-09-27T10:43:43.181Z,50.42
2022-09-27T10:47:08.540Z,49.91
2022-09-27T10:50:46.018Z,48.22
2022-09-27T10:54:04.284Z,46.02
2022-09-27T10:57:21.470Z,45.13
2022-09-27T11:00:27.839Z,45.68
2022-09-27T11:03:33.016Z,46.48
2022-09-27T11:06:39.368Z,45.31
2022-09-27T11:09:55.226Z,44.84
2022-09-27T11:13:19.440Z,43.63
2022-09-27T11:16:42.093Z,44.06
2022-09-27T11:19:57.557Z,44.72
2022-09-27T11:23:19.411Z,44.71
2022-09-27T11:26:40.839Z,43.35
2022-09-27T11:29:57.933Z,43.16
2022-09-27T11:33:54.196Z,42.58
2022-09-27T11:37:19.251Z,41.90
2022-09-27T11:40:32.919Z,41.85
2022-09-27T11:44:06.516Z,42.26
2022-09-27T11:47:21.661Z,41.98
2022-09-27T11:50:53.757Z,41.24
2022-09-27T11:54:27.911Z,42.77
2022-09-27T11:57:37.684Z,42.39
2022-09-27T12:00:55.712Z,41.93
2022-09-27T12:04:29.218Z,42.74
2022-09-27T12:07:43.495Z,41.86
2022-09-27T12:10:52.784Z,41.84
2022-09-27T12:14:03.597Z,41.38
2022-09-27T12:17:14.101Z,41.42
2022-09-27T12:20:24.805Z,40.84
2022-09-27T12:23:36.729Z,40.78
2022-09-27T12:27:03.837Z,42.21
2022-09-27T12:30:08.682Z,42.32
2022-09-27T12:33:20.358Z,42.44
2022-09-27T12:36:29.591Z,43.54
2022-09-27T12:39:45.548Z,43.48
2022-09-27T12:43:02.174Z,43.39
2022-09-27T12:46:34.257Z,43.25
2022-09-27T12:49:51.035Z,43.51
2022-09-27T12:53:04.533Z,43.98
2022-09-27T12:56:27.764Z,43.05
2022-09-27T12:59:53.511Z,42.14
2022-09-27T13:03:25.984Z,41.40
2022-09-27T13:07:11.138Z,41.72
2022-09-27T13:10:36.683Z,42.75
2022-09-27T13:13:50.850Z,43.75
2022-09-27T13:16:54.416Z,43.33
2022-09-27T13:19:59.604Z,42.02
2022-09-27T13:23:06.770Z,41.40
2022-09-27T13:26:24.402Z,40.83
2022-09-27T13:29:37.029Z,41.93
2022-09-27T13:33:23.878Z,41.94
2022-09-27T13:36:34.170Z,42.82
2022-09-27T13:39:46.422Z,43.03
2022-09-27T13:43:41.655Z,42.76
2022-09-27T13:47:07.017Z,43.13
2022-09-27T13:50:21.501Z,43.25
2022-09-27T13:53:36.621Z,43.55
2022-09-27T13:56:56.316Z,44.76
2022-09-27T14:00:05.281Z,45.27
2022-09-27T14:03:31.756Z,46.03
2022-09-27T14:06:46.109Z,46.87
2022-09-27T14:09:55.575Z,49.15
2022-09-27T14:13:07.256Z,52.38
2022-09-27T14:16:20.978Z,53.70
2022-09-27T14:19:29.034Z,56.84
2022-09-27T14:22:34.880Z,55.76
2022-09-27T14:25:40.685Z,56.48
2022-09-27T14:28:45.790Z,57.45
2022-09-27T14:32:06.139Z,57.23
2022-09-27T14:35:41.187Z,57.52
2022-09-27T14:38:45.436Z,57.13
2022-09-27T14:42:05.178Z,57.47
2022-09-27T14:45:23.746Z,57.46
2022-09-27T14:48:32.263Z,57.19
2022-09-27T14:51:35.830Z,58.86
2022-09-27T14:54:39.740Z,59.39
2022-09-27T14:57:48.290Z,59.72
2022-09-27T15:00:52.999Z,59.40
2022-09-27T15:03:58.470Z,59.85
2022-09-27T15:07:03.377Z,59.58
2022-09-27T15:10:07.809Z,59.69
2022-09-27T15:13:16.143Z,60.09
2022-09-27T15:16:24.252Z,61.79
2022-09-27T15:19:29.368Z,62.48
2022-09-27T15:22:45.018Z,61.56
2022-09-27T15:26:04.034Z,62.21
2022-09-27T15:29:07.735Z,61.11
2022-09-27T15:32:18.847Z,60.42
2022-09-27T15:35:26.691Z,60.07
2022-09-27T15:38:32.779Z,59.69
2022-09-27T15:42:05.831Z,58.97
2022-09-27T15:45:29.286Z,59.11
2022-09-27T15:48:37.729Z,59.57
2022-09-27T15:51:42.370Z,61.89
2022-09-27T15:54:45.615Z,62.99
2022-09-27T15:57:52.486Z,63.03
2022-09-27T16:00:57.804Z,62.78
2022-09-27T16:04:03.879Z,63.60
2022-09-27T16:07:10.050Z,66.36
2022-09-27T16:10:15.833Z,66.24
2022-09-27T16:13:19.123Z,66.90
2022-09-27T16:16:23.562Z,69.11
2022-09-27T16:19:28.227Z,70.06
2022-09-27T16:22:31.444Z,71.84
2022-09-27T16:25:34.765Z,73.94
2022-09-27T16:28:38.097Z,74.04
2022-09-27T16:31:41.527Z,75.60
2022-09-27T16:34:46.215Z,74.49
2022-09-27T16:37:50.032Z,75.10
2022-09-27T16:40:53.341Z,74.05
2022-09-27T16:43:56.618Z,73.79
2022-09-27T16:46:59.914Z,73.89
2022-09-27T16:50:22.488Z,76.74
2022-09-27T16:53:25.771Z,76.91
2022-09-27T16:56:29.312Z,77.45
2022-09-27T16:59:32.521Z,77.33
2022-09-27T17:02:36.232Z,79.44
2022-09-27T17:05:40.802Z,77.99
2022-09-27T17:08:44.158Z,76.90
2022-09-27T17:11:47.430Z,78.95
2022-09-27T17:14:50.633Z,78.93
2022-09-27T17:17:53.809Z,78.44
2022-09-27T17:21:03.572Z,80.05
2022-09-27T17:24:07.715Z,78.99
2022-09-27T17:27:10.952Z,80.78
2022-09-27T17:30:14.160Z,80.09
2022-09-27T17:33:20.497Z,78.91
2022-09-27T17:36:27.076Z,77.86
2022-09-27T17:39:30.305Z,76.47
2022-09-27T17:42:33.779Z,75.48
2022-09-27T17:45:36.980Z,75.76
2022-09-27T17:48:57.539Z,77.98
2022-09-27T17:52:02.459Z,79.81
2022-09-27T17:55:06.603Z,81.38
2022-09-27T17:58:09.773Z,82.12
2022-09-27T18:01:12.994Z,81.90
2022-09-27T18:04:19.700Z,81.64
2022-09-27T18:07:24.294Z,84.20
2022-09-27T18:10:27.579Z,80.28
2022-09-27T18:13:40.810Z,79.79
2022-09-27T18:16:44.310Z,79.62
2022-09-27T18:19:47.526Z,77.99
2022-09-27T18:22:53.317Z,80.03
2022-09-27T18:25:57.811Z,80.38
2022-09-27T18:29:02.911Z,80.04
2022-09-27T18:32:06.190Z,80.44
2022-09-27T18:35:10.081Z,80.18
2022-09-27T18:38:18.732Z,79.82
2022-09-27T18:41:24.859Z,78.93
2022-09-27T18:44:28.537Z,80.16
2022-09-27T18:47:34.266Z,82.28
2022-09-27T18:50:38.354Z,82.94
2022-09-27T18:53:43.641Z,81.50
2022-09-27T18:56:50.927Z,82.53
2022-09-27T18:59:54.568Z,83.36
2022-09-27T19:02:58.432Z,83.82
2022-09-27T19:06:04.329Z,82.81
2022-09-27T19:09:11.623Z,83.85
2022-09-27T19:12:15.329Z,81.78
2022-09-27T19:15:18.836Z,81.81
2022-09-27T19:18:22.662Z,82.32
2022-09-27T19:21:28.290Z,83.86
2022-09-27T19:24:33.110Z,86.80
2022-09-27T19:27:42.472Z,84.83
2022-09-27T19:30:47.281Z,83.79
2022-09-27T19:33:54.011Z,83.61
2022-09-27T19:36:59.578Z,86.02
2022-09-27T19:40:05.068Z,84.01
2022-09-27T19:43:08.474Z,82.97
2022-09-27T19:46:15.403Z,82.25
2022-09-27T19:49:19.446Z,82.94
2022-09-27T19:52:22.896Z,82.73
2022-09-27T19:55:27.746Z,82.80
2022-09-27T19:58:33.147Z,80.76
2022-09-27T20:01:37.112Z,80.39
2022-09-27T20:04:40.542Z,81.09
2022-09-27T20:10:56.701Z,79.71
2022-09-27T20:14:00.685Z,81.54
2022-09-27T20:17:04.465Z,81.29
2022-09-27T20:20:16.314Z,82.95
2022-09-27T20:23:25.549Z,82.14
2022-09-27T20:26:32.569Z,80.67
2022-09-27T20:29:36.468Z,80.73
2022-09-27T20:32:39.908Z,81.13
2022-09-27T20:35:51.580Z,80.47
2022-09-27T20:39:01.138Z,80.22
2022-09-27T20:42:07.471Z,80.20
2022-09-27T20:45:11.156Z,82.62
2022-09-27T20:48:14.842Z,80.38
2022-09-27T20:51:18.099Z,81.81
2022-09-27T20:54:21.377Z,79.55
2022-09-27T20:57:46.366Z,80.08
2022-09-27T21:00:49.512Z,79.17
2022-09-27T21:03:55.422Z,78.62
2022-09-27T21:06:58.927Z,78.74
2022-09-27T21:10:02.187Z,80.72
2022-09-27T21:13:06.892Z,80.33
2022-09-27T21:16:14.379Z,78.81
2022-09-27T21:19:18.369Z,77.85
2022-09-27T21:22:21.722Z,78.63
2022-09-27T21:25:24.868Z,79.36
2022-09-27T21:28:33.083Z,78.17
2022-09-27T21:31:36.698Z,77.27
2022-09-27T21:34:40.053Z,77.04
2022-09-27T21:37:44.010Z,75.91
2022-09-27T21:40:55.319Z,75.20
2022-09-27T21:43:59.993Z,75.23
2022-09-27T21:47:03.675Z,74.78
2022-09-27T21:50:07.841Z,74.28
2022-09-27T21:53:11.053Z,73.93
2022-09-27T21:56:14.287Z,73.55
2022-09-27T21:59:19.123Z,74.67
2022-09-27T22:02:23.627Z,75.21
2022-09-27T22:05:26.913Z,74.79
2022-09-27T22:08:30.394Z,74.90
2022-09-27T22:11:35.374Z,74.27
2022-09-27T22:14:40.010Z,75.06
2022-09-27T22:17:43.217Z,75.14
2022-09-27T22:20:46.834Z,75.18
2022-09-27T22:23:54.166Z,74.39
2022-09-27T22:26:57.567Z,73.83
2022-09-27T22:30:02.217Z,74.99
2022-09-27T22:33:05.623Z,74.20
2022-09-27T22:36:09.178Z,73.90
2022-09-27T22:39:12.598Z,73.82
2022-09-27T22:42:15.813Z,73.57
2022-09-27T22:45:20.505Z,74.46
2022-09-27T22:48:23.779Z,75.52
2022-09-27T22:51:27.179Z,74.73
2022-09-27T22:54:30.478Z,74.75
2022-09-27T22:57:33.704Z,73.97
2022-09-27T23:00:38.894Z,74.14
2022-09-27T23:03:42.320Z,73.75
2022-09-27T23:06:45.715Z,73.55
2022-09-27T23:09:48.947Z,74.90
2022-09-27T23:12:55.866Z,74.23
2022-09-27T23:16:03.398Z,74.06
2022-09-27T23:19:08.297Z,73.90
2022-09-27T23:22:11.548Z,74.53
2022-09-27T23:25:15.145Z,75.28
2022-09-27T23:28:18.366Z,75.12
2022-09-27T23:31:24.100Z,75.78
2022-09-27T23:34:27.433Z,75.92
2022-09-27T23:37:30.835Z,75.22
2022-09-27T23:40:36.068Z,74.90
2022-09-27T23:43:39.461Z,74.51
2022-09-27T23:46:44.265Z,74.70
2022-09-27T23:49:47.558Z,76.38
2022-09-27T23:52:50.833Z,76.64
2022-09-27T23:56:04.796Z,74.84
2022-09-27T23:59:09.009Z,75.49
